createdAt,value
2019-05-23T00:02:09.469Z,7.60
2019-05-23T00:05:13.520Z,7.60
2019-05-23T00:08:01.678Z,7.70
2019-05-23T00:10:47.679Z,7.70
2019-05-23T00:13:43.574Z,7.60
2019-05-23T00:16:15.790Z,7.40
2019-05-23T00:18:45.250Z,7.30
2019-05-23T00:21:15.834Z,7.30
2019-05-23T00:23:45.361Z,7.30
2019-05-23T00:26:16.774Z,7.40
2019-05-23T00:28:48.043Z,7.40
2019-05-23T00:31:29.518Z,7.40
2019-05-23T00:33:59.097Z,7.50
2019-05-23T00:36:29.110Z,7.40
2019-05-23T00:38:59.009Z,7.40
2019-05-23T00:41:29.504Z,7.30
2019-05-23T00:43:59.105Z,7.30
2019-05-23T00:46:30.125Z,7.30
2019-05-23T00:49:00.310Z,7.40
2019-05-23T00:51:31.703Z,7.40
2019-05-23T00:54:02.524Z,7.40
2019-05-23T00:56:33.154Z,7.40
2019-05-23T00:59:02.752Z,7.30
2019-05-23T01:01:32.871Z,7.30
2019-05-23T01:04:03.849Z,7.20
2019-05-23T01:06:34.998Z,7.20
2019-05-23T01:09:08.117Z,7.10
2019-05-23T01:11:38.351Z,7.00
2019-05-23T01:14:08.656Z,6.90
2019-05-23T01:16:38.872Z,6.90
2019-05-23T01:19:09.485Z,6.90
2019-05-23T01:21:40.665Z,6.90
2019-05-23T01:24:12.098Z,6.90
2019-05-23T01:26:42.341Z,6.90
2019-05-23T01:29:13.735Z,6.90
2019-05-23T01:31:45.182Z,6.80
2019-05-23T01:34:16.838Z,6.70
2019-05-23T01:36:46.746Z,6.70
2019-05-23T01:39:16.927Z,6.60
2019-05-23T01:41:46.687Z,6.50
2019-05-23T01:44:16.124Z,6.40
2019-05-23T01:46:45.655Z,6.40
2019-05-23T01:49:16.174Z,6.60
2019-05-23T01:51:45.650Z,6.80
2019-05-23T01:54:15.838Z,6.80
2019-05-23T01:56:45.482Z,6.60
2019-05-23T01:59:15.592Z,6.50
2019-05-23T02:01:45.203Z,6.40
2019-05-23T02:04:15.073Z,6.50
2019-05-23T02:06:44.971Z,6.50
2019-05-23T02:09:16.062Z,6.40
2019-05-23T02:11:45.994Z,6.40
2019-05-23T02:14:16.608Z,6.30
2019-05-23T02:16:46.656Z,6.30
2019-05-23T02:19:16.437Z,6.30
2019-05-23T02:21:45.920Z,6.20
2019-05-23T02:24:17.221Z,6.20
2019-05-23T02:26:46.856Z,6.10
2019-05-23T02:29:17.444Z,6.10
2019-05-23T02:31:47.402Z,6.20
2019-05-23T02:34:17.685Z,6.30
2019-05-23T02:36:48.375Z,6.30
2019-05-23T02:39:25.226Z,6.20
2019-05-23T02:41:56.390Z,6.10
2019-05-23T02:44:28.051Z,6.00
2019-05-23T02:46:59.255Z,5.90
2019-05-23T02:49:31.791Z,5.90
2019-05-23T02:52:16.694Z,5.80
2019-05-23T02:54:47.708Z,5.80
2019-05-23T02:57:18.824Z,5.80
2019-05-23T02:59:52.033Z,5.70
2019-05-23T03:02:47.478Z,5.70
2019-05-23T03:05:19.447Z,5.70
2019-05-23T03:07:50.813Z,5.70
2019-05-23T03:10:24.038Z,5.70
2019-05-23T03:12:54.551Z,5.70
2019-05-23T03:15:24.912Z,5.80
2019-05-23T03:17:56.879Z,5.90
2019-05-23T03:20:27.147Z,5.90
2019-05-23T03:23:12.257Z,5.70
2019-05-23T03:25:50.809Z,5.80
2019-05-23T03:28:20.994Z,5.70
2019-05-23T03:31:25.116Z,5.70
2019-05-23T03:33:33.921Z,5.70
2019-05-23T03:36:05.520Z,5.80
2019-05-23T03:38:36.726Z,5.80
2019-05-23T03:41:06.305Z,5.70
2019-05-23T03:43:36.623Z,5.70
2019-05-23T03:46:07.801Z,5.80
2019-05-23T03:48:37.874Z,5.80
2019-05-23T03:51:09.474Z,5.90
2019-05-23T03:53:39.893Z,5.80
2019-05-23T03:56:10.082Z,5.70
2019-05-23T03:58:41.766Z,5.70
2019-05-23T04:01:13.231Z,5.80
2019-05-23T04:03:44.926Z,5.90
2019-05-23T04:06:14.809Z,6.00
2019-05-23T04:08:44.363Z,6.00
2019-05-23T04:11:13.964Z,6.10
2019-05-23T04:13:43.451Z,6.10
2019-05-23T04:16:13.677Z,6.00
2019-05-23T04:18:43.326Z,6.00
2019-05-23T04:21:13.330Z,6.00
2019-05-23T04:23:42.820Z,6.00
2019-05-23T04:26:12.940Z,6.10
2019-05-23T04:28:42.491Z,6.10
2019-05-23T04:31:13.637Z,6.10
2019-05-23T04:33:43.221Z,6.20
2019-05-23T04:36:14.121Z,6.20
2019-05-23T04:38:43.969Z,6.20
2019-05-23T04:41:13.971Z,6.30
2019-05-23T04:43:43.514Z,6.40
2019-05-23T04:46:13.331Z,6.60
2019-05-23T04:48:43.152Z,6.80
2019-05-23T04:51:13.583Z,6.90
2019-05-23T04:53:43.058Z,7.20
2019-05-23T04:56:13.430Z,7.30
2019-05-23T04:58:42.977Z,7.40
2019-05-23T05:01:14.896Z,7.50
2019-05-23T05:03:45.696Z,7.60
2019-05-23T05:06:15.522Z,7.70
2019-05-23T05:08:45.643Z,7.80
2019-05-23T05:11:15.647Z,7.90
2019-05-23T05:13:45.460Z,8.00
2019-05-23T05:16:15.054Z,8.20
2019-05-23T05:18:44.537Z,8.30
2019-05-23T05:21:14.367Z,8.40
2019-05-23T05:23:43.988Z,8.50
2019-05-23T05:26:16.527Z,8.60
2019-05-23T05:28:46.409Z,8.70
2019-05-23T05:31:15.883Z,8.80
2019-05-23T05:33:45.356Z,8.80
2019-05-23T05:36:14.811Z,9.00
2019-05-23T05:38:44.708Z,9.00
2019-05-23T05:41:14.776Z,9.10
2019-05-23T05:43:44.407Z,9.20
2019-05-23T05:46:13.928Z,9.30
2019-05-23T05:48:43.486Z,9.30
2019-05-23T05:51:12.939Z,9.40
2019-05-23T05:53:42.851Z,9.50
2019-05-23T05:56:12.462Z,9.50
2019-05-23T05:58:42.537Z,9.60
2019-05-23T06:01:13.649Z,9.60
2019-05-23T06:03:43.125Z,9.70
2019-05-23T06:06:29.577Z,9.80
2019-05-23T06:09:00.702Z,9.80
2019-05-23T06:11:30.500Z,9.90
2019-05-23T06:13:59.983Z,10.00
2019-05-23T06:16:29.443Z,10.10
2019-05-23T06:18:59.112Z,10.30
2019-05-23T06:21:28.837Z,10.40
2019-05-23T06:23:58.596Z,10.60
2019-05-23T06:26:28.387Z,10.70
2019-05-23T06:28:57.879Z,10.90
2019-05-23T06:31:27.980Z,11.00
2019-05-23T06:33:57.470Z,11.10
2019-05-23T06:36:27.377Z,11.30
2019-05-23T06:38:56.851Z,11.40
2019-05-23T06:41:26.983Z,11.60
2019-05-23T06:43:56.486Z,11.80
2019-05-23T06:46:26.067Z,11.90
2019-05-23T06:48:55.746Z,11.90
2019-05-23T06:51:25.195Z,12.00
2019-05-23T06:53:55.216Z,12.10
2019-05-23T06:56:25.548Z,12.20
2019-05-23T06:58:55.367Z,12.40
2019-05-23T07:01:24.966Z,12.70
2019-05-23T07:03:54.455Z,12.80
2019-05-23T07:06:24.635Z,13.00
2019-05-23T07:08:54.256Z,13.20
2019-05-23T07:11:24.456Z,13.30
2019-05-23T07:13:54.283Z,13.40
2019-05-23T07:16:23.751Z,13.50
2019-05-23T07:18:53.426Z,13.60
2019-05-23T07:21:23.236Z,13.70
2019-05-23T07:23:52.852Z,13.80
2019-05-23T07:26:22.628Z,13.90
2019-05-23T07:28:52.719Z,14.00
2019-05-23T07:31:22.341Z,14.00
2019-05-23T07:34:01.659Z,14.10
2019-05-23T07:36:22.905Z,14.20
2019-05-23T07:38:52.439Z,14.40
2019-05-23T07:41:23.940Z,14.30
2019-05-23T07:43:53.544Z,14.40
2019-05-23T07:46:23.019Z,14.50
2019-05-23T07:48:53.631Z,14.60
2019-05-23T07:51:23.177Z,14.70
2019-05-23T07:53:54.760Z,14.90
2019-05-23T07:56:25.935Z,14.90
2019-05-23T07:58:55.459Z,15.00
2019-05-23T08:01:26.648Z,15.00
2019-05-23T08:03:57.537Z,15.20
2019-05-23T08:06:27.193Z,15.20
2019-05-23T08:08:57.899Z,15.20
2019-05-23T08:11:27.653Z,15.30
2019-05-23T08:13:58.524Z,15.40
2019-05-23T08:16:28.654Z,15.50
2019-05-23T08:18:58.183Z,15.60
2019-05-23T08:21:27.862Z,15.70
2019-05-23T08:23:57.311Z,15.90
2019-05-23T08:26:28.820Z,15.90
2019-05-23T08:29:24.107Z,16.00
2019-05-23T08:31:30.457Z,16.10
2019-05-23T08:34:00.024Z,16.10
2019-05-23T08:36:29.951Z,16.10
2019-05-23T08:39:00.977Z,16.30
2019-05-23T08:41:30.582Z,16.40
2019-05-23T08:44:00.020Z,16.50
2019-05-23T08:46:31.170Z,16.60
2019-05-23T08:49:00.695Z,16.80
2019-05-23T08:51:30.575Z,16.90
2019-05-23T08:54:00.355Z,17.10
2019-05-23T08:56:30.358Z,17.10
2019-05-23T08:59:00.849Z,17.10
2019-05-23T09:01:31.357Z,17.40
2019-05-23T09:04:01.902Z,17.80
2019-05-23T09:06:31.538Z,18.50
2019-05-23T09:09:01.631Z,19.10
2019-05-23T09:11:33.018Z,19.90
2019-05-23T09:14:02.534Z,20.00
2019-05-23T09:16:33.309Z,20.10
2019-05-23T09:19:03.054Z,20.00
2019-05-23T09:21:32.523Z,19.90
2019-05-23T09:24:01.962Z,20.10
2019-05-23T09:26:31.500Z,20.40
2019-05-23T09:29:00.980Z,20.10
2019-05-23T09:31:31.067Z,20.10
2019-05-23T09:34:00.586Z,20.00
2019-05-23T09:36:30.122Z,19.90
2019-05-23T09:38:59.566Z,20.00
2019-05-23T09:41:29.183Z,20.70
2019-05-23T09:43:58.775Z,20.90
2019-05-23T09:46:28.305Z,21.20
2019-05-23T09:48:57.755Z,21.20
2019-05-23T09:51:27.218Z,21.10
2019-05-23T09:53:56.749Z,21.20
2019-05-23T09:56:26.277Z,21.40
2019-05-23T09:58:56.373Z,21.70
2019-05-23T10:01:25.998Z,21.90
2019-05-23T10:03:56.114Z,21.80
2019-05-23T10:06:25.662Z,22.20
2019-05-23T10:08:55.181Z,22.10
2019-05-23T10:11:24.650Z,22.20
2019-05-23T10:13:54.685Z,22.60
2019-05-23T10:16:24.205Z,22.60
2019-05-23T10:18:53.654Z,22.90
2019-05-23T10:21:23.372Z,22.50
2019-05-23T10:23:52.814Z,21.60
2019-05-23T10:26:22.298Z,22.10
2019-05-23T10:28:51.749Z,21.80
2019-05-23T10:31:21.389Z,22.10
2019-05-23T10:33:51.045Z,22.10
2019-05-23T10:36:20.702Z,22.50
2019-05-23T10:38:50.296Z,22.10
2019-05-23T10:41:19.756Z,22.60
2019-05-23T10:43:49.239Z,23.00
2019-05-23T10:46:18.744Z,23.30
2019-05-23T10:48:48.303Z,23.70
2019-05-23T10:51:17.816Z,23.60
2019-05-23T10:53:47.281Z,22.70
2019-05-23T10:56:20.505Z,22.40
2019-05-23T10:58:48.389Z,22.20
2019-05-23T11:01:18.005Z,22.20
2019-05-23T11:03:47.598Z,23.00
2019-05-23T11:06:17.281Z,23.80
2019-05-23T11:08:46.819Z,23.60
2019-05-23T11:11:16.306Z,23.50
2019-05-23T11:13:46.049Z,23.50
2019-05-23T11:16:15.641Z,22.90
2019-05-23T11:18:45.189Z,23.10
2019-05-23T11:21:14.637Z,23.80
2019-05-23T11:23:49.051Z,23.50
2019-05-23T11:26:18.485Z,23.60
2019-05-23T11:28:48.243Z,23.60
2019-05-23T11:31:18.156Z,24.30
2019-05-23T11:33:47.632Z,24.10
2019-05-23T11:36:33.943Z,23.30
2019-05-23T11:38:48.888Z,23.40
2019-05-23T11:41:19.206Z,23.70
2019-05-23T11:43:48.913Z,23.60
2019-05-23T11:46:32.221Z,23.20
2019-05-23T11:49:02.067Z,23.00
2019-05-23T11:51:31.516Z,23.40
2019-05-23T11:54:08.141Z,23.60
2019-05-23T11:56:33.163Z,23.80
2019-05-23T11:59:02.723Z,23.40
2019-05-23T12:01:34.345Z,23.20
2019-05-23T12:04:05.703Z,23.70
2019-05-23T12:06:55.351Z,24.10
2019-05-23T12:09:21.523Z,24.60
2019-05-23T12:11:50.984Z,24.60
2019-05-23T12:14:20.505Z,24.80
2019-05-23T12:16:50.325Z,24.80
2019-05-23T12:19:20.394Z,25.10
2019-05-23T12:21:49.911Z,24.70
2019-05-23T12:24:20.218Z,24.30
2019-05-23T12:26:49.745Z,24.10
2019-05-23T12:29:19.586Z,23.50
2019-05-23T12:31:49.922Z,23.30
2019-05-23T12:34:19.549Z,23.00
2019-05-23T12:36:49.068Z,22.60
2019-05-23T12:39:18.628Z,23.00
2019-05-23T12:41:48.086Z,23.40
2019-05-23T12:44:18.245Z,23.20
2019-05-23T12:46:47.842Z,22.70
2019-05-23T12:49:18.973Z,23.00
2019-05-23T12:51:48.418Z,23.30
2019-05-23T12:54:17.891Z,24.20
2019-05-23T12:56:49.083Z,23.90
2019-05-23T12:59:19.412Z,24.30
2019-05-23T13:01:50.691Z,24.00
2019-05-23T13:04:20.479Z,23.30
2019-05-23T13:06:50.834Z,23.70
2019-05-23T13:09:20.307Z,23.20
2019-05-23T13:11:49.926Z,24.10
2019-05-23T13:14:19.840Z,24.80
2019-05-23T13:16:49.299Z,25.20
2019-05-23T13:19:19.073Z,25.90
2019-05-23T13:21:48.595Z,25.60
2019-05-23T13:24:18.139Z,24.50
2019-05-23T13:26:47.654Z,23.30
2019-05-23T13:29:17.131Z,23.80
2019-05-23T13:31:46.658Z,24.10
2019-05-23T13:34:16.201Z,24.40
2019-05-23T13:36:45.754Z,24.30
2019-05-23T13:39:15.201Z,25.90
2019-05-23T13:41:44.747Z,27.00
2019-05-23T13:44:31.978Z,26.20
2019-05-23T13:46:45.426Z,26.60
2019-05-23T13:49:15.953Z,26.40
2019-05-23T13:51:45.788Z,25.90
2019-05-23T13:54:15.233Z,25.30
2019-05-23T13:56:47.769Z,24.90
2019-05-23T13:59:16.111Z,24.70
2019-05-23T14:01:45.707Z,23.90
2019-05-23T14:04:15.406Z,23.40
2019-05-23T14:06:44.858Z,23.20
2019-05-23T14:09:17.458Z,23.00
2019-05-23T14:11:47.061Z,23.70
2019-05-23T14:14:17.591Z,24.40
2019-05-23T14:16:48.714Z,24.50
2019-05-23T14:19:18.426Z,24.10
2019-05-23T14:22:09.573Z,24.00
2019-05-23T14:24:39.137Z,24.50
2019-05-23T14:27:10.222Z,23.50
2019-05-23T14:29:40.034Z,23.30
2019-05-23T14:32:11.145Z,23.50
2019-05-23T14:34:40.630Z,24.30
2019-05-23T14:37:28.006Z,25.10
2019-05-23T14:39:59.394Z,24.50
2019-05-23T14:42:42.434Z,23.50
2019-05-23T14:45:30.475Z,24.00
2019-05-23T14:48:01.926Z,24.70
2019-05-23T14:50:38.518Z,24.50
2019-05-23T14:53:09.662Z,24.60
2019-05-23T14:55:39.194Z,24.00
2019-05-23T14:58:09.580Z,23.80
2019-05-23T15:00:39.530Z,24.30
2019-05-23T15:03:08.997Z,23.90
2019-05-23T15:05:38.630Z,23.40
2019-05-23T15:08:08.086Z,23.50
2019-05-23T15:10:38.820Z,23.00
2019-05-23T15:13:08.326Z,23.00
2019-05-23T15:15:37.865Z,23.50
2019-05-23T15:18:07.698Z,23.60
2019-05-23T15:20:37.175Z,23.70
2019-05-23T15:23:07.161Z,23.70
2019-05-23T15:25:36.634Z,23.80
2019-05-23T15:28:06.549Z,23.50
2019-05-23T15:30:36.191Z,23.60
2019-05-23T15:33:05.920Z,23.70
2019-05-23T15:35:35.649Z,24.10
2019-05-23T15:38:05.115Z,24.50
2019-05-23T15:40:35.018Z,24.90
2019-05-23T15:43:04.538Z,24.80
2019-05-23T15:45:34.014Z,25.20
2019-05-23T15:48:03.539Z,25.30
2019-05-23T15:50:40.694Z,25.00
2019-05-23T15:53:26.769Z,24.80
2019-05-23T15:56:26.593Z,23.80
2019-05-23T15:58:46.857Z,24.20
2019-05-23T16:01:18.428Z,24.10
2019-05-23T16:03:49.687Z,24.80
2019-05-23T16:06:20.988Z,25.20
2019-05-23T16:08:50.425Z,25.20
2019-05-23T16:11:20.326Z,25.30
2019-05-23T16:13:49.770Z,26.00
2019-05-23T16:16:19.377Z,26.20
2019-05-23T16:18:49.390Z,26.50
2019-05-23T16:21:19.576Z,26.00
2019-05-23T16:23:49.085Z,26.50
2019-05-23T16:26:18.553Z,26.50
2019-05-23T16:28:48.174Z,26.40
2019-05-23T16:31:17.815Z,26.00
2019-05-23T16:33:48.236Z,26.00
2019-05-23T16:36:17.870Z,25.40
2019-05-23T16:38:47.316Z,25.60
2019-05-23T16:41:17.863Z,25.90
2019-05-23T16:43:47.476Z,26.30
2019-05-23T16:46:17.174Z,25.90
2019-05-23T16:48:47.233Z,26.10
2019-05-23T16:51:16.713Z,26.00
2019-05-23T16:53:46.158Z,25.50
2019-05-23T16:56:20.213Z,25.20
2019-05-23T16:59:03.364Z,24.80
2019-05-23T17:01:35.781Z,24.80
2019-05-23T17:04:12.681Z,25.20
2019-05-23T17:06:43.807Z,24.90
2019-05-23T17:09:14.891Z,24.50
2019-05-23T17:11:46.046Z,24.40
2019-05-23T17:14:23.150Z,24.90
2019-05-23T17:17:05.163Z,24.70
2019-05-23T17:19:33.142Z,24.80
2019-05-23T17:22:08.111Z,24.40
2019-05-23T17:24:40.059Z,24.90
2019-05-23T17:27:11.539Z,25.10
2019-05-23T17:29:42.679Z,25.10
2019-05-23T17:32:13.791Z,24.70
2019-05-23T17:34:43.578Z,24.90
2019-05-23T17:37:13.516Z,24.90
2019-05-23T17:39:43.863Z,24.50
2019-05-23T17:42:13.780Z,24.10
2019-05-23T17:44:43.302Z,23.60
2019-05-23T17:47:12.783Z,23.40
2019-05-23T17:49:42.308Z,23.40
2019-05-23T17:52:12.789Z,23.30
2019-05-23T17:54:42.381Z,23.20
2019-05-23T17:57:12.425Z,22.90
2019-05-23T17:59:44.051Z,22.90
2019-05-23T18:02:14.643Z,22.80
2019-05-23T18:04:47.413Z,22.60
2019-05-23T18:07:17.015Z,22.20
2019-05-23T18:09:46.943Z,21.90
2019-05-23T18:12:16.481Z,21.40
2019-05-23T18:14:46.269Z,21.00
2019-05-23T18:17:15.742Z,20.70
2019-05-23T18:19:45.426Z,20.20
2019-05-23T18:22:14.987Z,19.80
2019-05-23T18:24:44.441Z,19.50
2019-05-23T18:27:14.979Z,19.40
2019-05-23T18:29:44.500Z,19.40
2019-05-23T18:32:15.851Z,19.30
2019-05-23T18:34:45.687Z,19.30
2019-05-23T18:37:16.008Z,19.10
2019-05-23T18:39:51.336Z,18.80
2019-05-23T18:42:21.551Z,18.60
2019-05-23T18:44:51.183Z,18.50
2019-05-23T18:47:22.341Z,18.30
2019-05-23T18:49:53.042Z,18.40
2019-05-23T18:52:22.516Z,18.30
2019-05-23T18:54:52.273Z,18.30
2019-05-23T18:57:22.058Z,18.30
2019-05-23T18:59:51.574Z,18.20
2019-05-23T19:02:21.225Z,18.00
2019-05-23T19:04:51.326Z,17.80
2019-05-23T19:07:20.877Z,17.60
2019-05-23T19:09:50.326Z,17.40
2019-05-23T19:12:20.173Z,17.30
2019-05-23T19:14:49.694Z,17.10
2019-05-23T19:17:19.454Z,16.90
2019-05-23T19:19:49.290Z,16.70
2019-05-23T19:22:18.817Z,16.50
2019-05-23T19:24:48.354Z,16.20
2019-05-23T19:27:18.773Z,16.00
2019-05-23T19:29:48.993Z,15.80
2019-05-23T19:32:19.522Z,15.70
2019-05-23T19:34:48.996Z,15.70
2019-05-23T19:37:18.568Z,15.70
2019-05-23T19:39:48.720Z,15.60
2019-05-23T19:42:18.545Z,15.60
2019-05-23T19:44:48.114Z,15.50
2019-05-23T19:47:17.825Z,15.30
2019-05-23T19:49:47.323Z,15.20
2019-05-23T19:52:17.306Z,15.10
2019-05-23T19:54:47.587Z,15.00
2019-05-23T19:57:18.127Z,14.90
2019-05-23T19:59:47.604Z,14.70
2019-05-23T20:02:31.460Z,14.50
2019-05-23T20:05:05.541Z,14.40
2019-05-23T20:07:35.146Z,14.20
2019-05-23T20:10:05.265Z,14.00
2019-05-23T20:12:35.355Z,14.00
2019-05-23T20:15:06.377Z,14.10
2019-05-23T20:17:35.871Z,14.00
2019-05-23T20:20:06.767Z,14.10
2019-05-23T20:22:42.670Z,13.90
2019-05-23T20:25:12.638Z,13.70
2019-05-23T20:27:42.244Z,13.60
2019-05-23T20:30:15.280Z,13.50
2019-05-23T20:32:44.812Z,13.40
2019-05-23T20:35:14.669Z,13.40
2019-05-23T20:37:44.268Z,13.60
2019-05-23T20:40:14.222Z,13.70
2019-05-23T20:42:44.061Z,13.70
2019-05-23T20:45:13.932Z,13.60
2019-05-23T20:47:43.556Z,13.70
2019-05-23T20:50:13.109Z,13.90
2019-05-23T20:52:42.579Z,14.00
2019-05-23T20:55:12.472Z,13.90
2019-05-23T20:57:41.935Z,13.80
2019-05-23T21:00:13.799Z,13.80
2019-05-23T21:02:43.587Z,14.00
2019-05-23T21:05:13.284Z,14.10
2019-05-23T21:07:42.751Z,14.30
2019-05-23T21:10:15.313Z,14.40
2019-05-23T21:12:44.776Z,14.50
2019-05-23T21:15:14.251Z,14.50
2019-05-23T21:17:43.800Z,14.60
2019-05-23T21:20:13.347Z,14.60
2019-05-23T21:22:42.812Z,14.70
2019-05-23T21:25:12.569Z,14.70
2019-05-23T21:27:42.032Z,14.80
2019-05-23T21:30:12.658Z,14.90
2019-05-23T21:32:42.124Z,14.90
2019-05-23T21:35:11.694Z,14.90
2019-05-23T21:37:41.228Z,14.90
2019-05-23T21:40:13.788Z,14.90
2019-05-23T21:42:47.575Z,14.90
2019-05-23T21:45:14.444Z,14.90
2019-05-23T21:47:43.908Z,14.90
2019-05-23T21:50:13.762Z,14.90
2019-05-23T21:52:43.233Z,14.80
2019-05-23T21:55:15.793Z,14.80
2019-05-23T21:57:45.249Z,14.80
2019-05-23T22:00:19.452Z,14.80
2019-05-23T22:02:50.536Z,14.70
2019-05-23T22:05:20.279Z,14.70
2019-05-23T22:07:49.789Z,14.70
2019-05-23T22:10:20.357Z,14.60
2019-05-23T22:13:03.546Z,14.60
2019-05-23T22:15:35.654Z,14.60
2019-05-23T22:18:05.745Z,14.60
2019-05-23T22:20:35.228Z,14.50
2019-05-23T22:23:04.696Z,14.50
2019-05-23T22:25:34.323Z,13.50
2019-05-23T22:28:03.856Z,13.50
2019-05-23T22:30:33.411Z,13.50
2019-05-23T22:33:03.040Z,13.90
2019-05-23T22:35:32.563Z,14.20
2019-05-23T22:38:02.100Z,14.00
2019-05-23T22:40:31.754Z,13.90
2019-05-23T22:43:01.364Z,13.80
2019-05-23T22:45:31.189Z,13.70
2019-05-23T22:48:00.651Z,13.70
2019-05-23T22:50:30.143Z,13.70
2019-05-23T22:52:59.612Z,13.40
2019-05-23T22:55:29.473Z,13.10
2019-05-23T22:57:58.942Z,12.90
2019-05-23T23:00:30.133Z,12.70
2019-05-23T23:02:59.601Z,12.70
2019-05-23T23:05:29.156Z,12.80
2019-05-23T23:07:58.615Z,12.60
2019-05-23T23:10:28.101Z,12.40
2019-05-23T23:12:57.635Z,12.10
2019-05-23T23:15:28.499Z,11.90
2019-05-23T23:17:57.965Z,11.80
2019-05-23T23:20:27.453Z,11.80
2019-05-23T23:22:56.918Z,12.00
2019-05-23T23:25:26.404Z,11.80
2019-05-23T23:27:55.865Z,11.60
2019-05-23T23:30:27.958Z,11.60
2019-05-23T23:32:57.671Z,11.50
2019-05-23T23:35:27.163Z,11.40
2019-05-23T23:37:56.792Z,11.30
2019-05-23T23:40:26.343Z,11.20
2019-05-23T23:42:55.804Z,10.90
2019-05-23T23:45:43.807Z,10.90
2019-05-23T23:48:31.504Z,10.80
2019-05-23T23:51:18.842Z,10.80
2019-05-23T23:54:06.380Z,10.70
2019-05-23T23:56:54.001Z,10.60
2019-05-23T23:59:22.779Z,10.50
